createdAt,value
2023-03-27T00:00:34.389Z,73.66
2023-03-27T00:03:38.031Z,73.84
2023-03-27T00:06:40.635Z,73.11
2023-03-27T00:09:44.242Z,73.98
2023-03-27T00:12:46.594Z,73.83
2023-03-27T00:15:53.917Z,73.08
2023-03-27T00:18:56.554Z,73.88
2023-03-27T00:21:59.114Z,74.91
2023-03-27T00:25:02.381Z,75.24
2023-03-27T00:28:05.110Z,75.97
2023-03-27T00:31:15.663Z,76.14
2023-03-27T00:34:18.505Z,76.34
2023-03-27T00:37:22.211Z,76.86
2023-03-27T00:40:25.610Z,77.14
2023-03-27T00:43:35.668Z,77.59
2023-03-27T00:46:44.923Z,77.40
2023-03-27T00:49:49.836Z,77.28
2023-03-27T00:52:58.424Z,76.78
2023-03-27T00:56:04.964Z,76.90
2023-03-27T00:59:14.180Z,77.28
2023-03-27T01:02:17.933Z,76.99
2023-03-27T01:05:21.471Z,77.02
2023-03-27T01:08:27.281Z,77.78
2023-03-27T01:11:42.154Z,77.49
2023-03-27T01:15:12.800Z,76.99
2023-03-27T01:18:53.702Z,76.73
2023-03-27T01:22:19.025Z,77.18
2023-03-27T01:25:45.954Z,78.07
2023-03-27T01:29:09.269Z,77.68
2023-03-27T01:32:27.200Z,78.22
2023-03-27T01:35:55.480Z,78.73
2023-03-27T01:39:50.418Z,78.24
2023-03-27T01:43:04.719Z,79.60
2023-03-27T01:46:15.792Z,80.38
2023-03-27T01:49:24.850Z,79.09
2023-03-27T01:52:31.549Z,80.43
2023-03-27T01:55:39.632Z,81.44
2023-03-27T01:58:46.770Z,81.91
2023-03-27T02:01:59.830Z,81.33
2023-03-27T02:05:12.694Z,80.82
2023-03-27T02:08:50.712Z,80.59
2023-03-27T02:11:59.516Z,81.46
2023-03-27T02:15:25.560Z,80.86
2023-03-27T02:18:35.939Z,82.51
2023-03-27T02:21:38.339Z,82.70
2023-03-27T02:24:43.365Z,83.29
2023-03-27T02:27:50.062Z,83.72
2023-03-27T02:31:05.386Z,84.12
2023-03-27T02:34:26.603Z,83.44
2023-03-27T02:37:54.606Z,83.60
2023-03-27T02:41:05.691Z,84.00
2023-03-27T02:44:47.408Z,83.98
2023-03-27T02:48:09.644Z,83.55
2023-03-27T02:51:22.487Z,83.40
2023-03-27T02:54:33.311Z,82.91
2023-03-27T02:57:52.301Z,82.35
2023-03-27T03:01:00.120Z,82.83
2023-03-27T03:04:13.224Z,81.68
2023-03-27T03:07:18.665Z,81.73
2023-03-27T03:10:21.643Z,80.91
2023-03-27T03:13:26.237Z,81.23
2023-03-27T03:16:29.862Z,81.42
2023-03-27T03:19:32.508Z,81.03
2023-03-27T03:22:36.389Z,81.25
2023-03-27T03:25:39.379Z,81.35
2023-03-27T03:28:59.769Z,81.03
2023-03-27T03:32:05.775Z,81.40
2023-03-27T03:35:09.907Z,80.84
2023-03-27T03:38:12.448Z,80.98
2023-03-27T03:41:16.319Z,81.19
2023-03-27T03:44:19.018Z,80.91
2023-03-27T03:47:21.691Z,80.74
2023-03-27T03:50:24.451Z,80.43
2023-03-27T03:53:27.256Z,81.12
2023-03-27T03:56:30.905Z,81.18
2023-03-27T03:59:33.662Z,81.09
2023-03-27T04:02:38.765Z,81.92
2023-03-27T04:05:42.591Z,81.60
2023-03-27T04:08:45.036Z,81.58
2023-03-27T04:11:53.805Z,81.55
2023-03-27T04:14:57.645Z,80.89
2023-03-27T04:18:04.617Z,81.34
2023-03-27T04:21:14.877Z,81.45
2023-03-27T04:24:18.302Z,80.93
2023-03-27T04:27:21.466Z,81.44
2023-03-27T04:30:28.103Z,80.96
2023-03-27T04:33:34.386Z,80.98
2023-03-27T04:36:39.642Z,81.46
2023-03-27T04:39:46.294Z,81.55
2023-03-27T04:42:50.176Z,82.00
2023-03-27T04:45:53.438Z,81.82
2023-03-27T04:48:56.553Z,82.04
2023-03-27T04:52:00.859Z,82.12
2023-03-27T04:55:05.070Z,81.97
2023-03-27T04:58:08.242Z,82.16
2023-03-27T05:01:12.689Z,82.28
2023-03-27T05:04:17.354Z,82.67
2023-03-27T05:07:20.593Z,82.23
2023-03-27T05:10:23.609Z,82.23
2023-03-27T05:13:26.476Z,82.28
2023-03-27T05:16:28.880Z,82.15
2023-03-27T05:19:32.013Z,82.13
2023-03-27T05:22:34.903Z,82.25
2023-03-27T05:25:39.485Z,82.03
2023-03-27T05:28:44.782Z,82.40
2023-03-27T05:31:48.057Z,82.43
2023-03-27T05:34:54.666Z,82.02
2023-03-27T05:37:59.000Z,82.35
2023-03-27T05:41:02.323Z,81.88
2023-03-27T05:44:05.516Z,81.96
2023-03-27T05:47:10.354Z,81.69
2023-03-27T05:50:14.429Z,81.61
2023-03-27T05:53:17.818Z,81.99
2023-03-27T05:56:21.305Z,81.19
2023-03-27T05:59:24.373Z,80.98
2023-03-27T06:02:27.868Z,81.27
2023-03-27T06:05:32.498Z,81.36
2023-03-27T06:08:36.983Z,81.02
2023-03-27T06:11:42.795Z,80.70
2023-03-27T06:14:45.630Z,80.58
2023-03-27T06:17:49.157Z,80.61
2023-03-27T06:20:52.806Z,81.04
2023-03-27T06:23:56.337Z,81.03
2023-03-27T06:26:59.053Z,80.82
2023-03-27T06:30:04.697Z,81.34
2023-03-27T06:33:08.462Z,80.36
2023-03-27T06:36:12.373Z,80.27
2023-03-27T06:39:15.292Z,80.20
2023-03-27T06:42:21.275Z,79.35
2023-03-27T06:45:26.296Z,79.24
2023-03-27T06:48:33.911Z,79.44
2023-03-27T06:51:37.152Z,78.71
2023-03-27T06:54:39.874Z,78.90
2023-03-27T06:57:44.197Z,79.09
2023-03-27T07:00:49.648Z,79.34
2023-03-27T07:04:03.794Z,79.22
2023-03-27T07:07:09.326Z,79.41
2023-03-27T07:10:12.729Z,79.65
2023-03-27T07:13:16.647Z,79.56
2023-03-27T07:16:19.096Z,79.60
2023-03-27T07:19:21.792Z,79.98
2023-03-27T07:22:25.867Z,79.30
2023-03-27T07:25:37.824Z,79.73
2023-03-27T07:28:40.837Z,78.72
2023-03-27T07:31:57.669Z,79.26
2023-03-27T07:35:05.242Z,79.22
2023-03-27T07:38:09.813Z,78.87
2023-03-27T07:41:14.350Z,78.73
2023-03-27T07:44:19.713Z,78.57
2023-03-27T07:47:26.104Z,78.37
2023-03-27T07:50:47.920Z,78.26
2023-03-27T07:53:55.198Z,79.02
2023-03-27T07:56:58.479Z,79.00
2023-03-27T08:00:04.317Z,78.29
2023-03-27T08:03:19.864Z,79.10
2023-03-27T08:06:23.568Z,78.43
2023-03-27T08:09:25.964Z,78.30
2023-03-27T08:12:29.660Z,77.87
2023-03-27T08:15:32.375Z,77.58
2023-03-27T08:18:36.882Z,77.35
2023-03-27T08:21:39.734Z,77.83
2023-03-27T08:24:42.556Z,77.47
2023-03-27T08:27:45.386Z,77.57
2023-03-27T08:30:49.791Z,77.94
2023-03-27T08:33:52.306Z,78.19
2023-03-27T08:36:56.400Z,78.55
2023-03-27T08:40:01.966Z,79.17
2023-03-27T08:43:14.687Z,78.60
2023-03-27T08:46:22.636Z,79.06
2023-03-27T08:49:30.918Z,78.73
2023-03-27T08:52:34.549Z,79.15
2023-03-27T08:55:41.592Z,78.97
2023-03-27T08:58:45.658Z,79.26
2023-03-27T09:02:18.509Z,79.23
2023-03-27T09:05:33.385Z,79.23
2023-03-27T09:12:05.923Z,78.90
2023-03-27T09:15:16.682Z,79.59
2023-03-27T09:18:32.397Z,79.79
2023-03-27T09:21:38.461Z,79.81
2023-03-27T09:24:44.648Z,80.06
2023-03-27T09:27:52.389Z,80.32
2023-03-27T09:30:55.913Z,81.12
2023-03-27T09:34:04.053Z,80.66
2023-03-27T09:37:13.290Z,80.91
2023-03-27T09:40:30.485Z,81.22
2023-03-27T09:43:43.065Z,80.38
2023-03-27T09:46:49.699Z,80.51
2023-03-27T09:50:04.130Z,79.96
2023-03-27T09:53:23.042Z,80.18
2023-03-27T09:56:32.112Z,80.10
2023-03-27T10:00:00.300Z,79.89
2023-03-27T10:03:37.005Z,80.42
2023-03-27T10:06:47.992Z,80.34
2023-03-27T10:10:11.709Z,80.87
2023-03-27T10:13:16.654Z,81.01
2023-03-27T10:16:24.274Z,80.53
2023-03-27T10:19:37.183Z,79.70
2023-03-27T10:22:52.591Z,79.72
2023-03-27T10:26:04.070Z,79.67
2023-03-27T10:29:27.104Z,79.69
2023-03-27T10:32:44.877Z,79.87
2023-03-27T10:35:48.973Z,79.69
2023-03-27T10:38:57.310Z,79.93
2023-03-27T10:42:08.546Z,80.03
2023-03-27T10:45:20.969Z,80.53
2023-03-27T10:48:47.770Z,79.76
2023-03-27T10:52:01.059Z,79.66
2023-03-27T10:55:22.216Z,79.23
2023-03-27T10:58:35.245Z,79.21
2023-03-27T11:01:46.798Z,79.28
2023-03-27T11:05:23.039Z,78.90
2023-03-27T11:08:51.435Z,79.56
2023-03-27T11:12:07.298Z,79.60
2023-03-27T11:15:38.335Z,78.89
2023-03-27T11:19:23.867Z,79.09
2023-03-27T11:22:59.919Z,79.43
2023-03-27T11:26:07.495Z,79.68
2023-03-27T11:29:21.474Z,79.30
2023-03-27T11:32:43.311Z,80.27
2023-03-27T11:35:54.552Z,79.29
2023-03-27T11:39:34.618Z,79.55
2023-03-27T11:42:42.857Z,78.99
2023-03-27T11:46:18.683Z,79.37
2023-03-27T11:49:39.812Z,79.48
2023-03-27T11:52:46.780Z,80.12
2023-03-27T11:56:00.372Z,79.74
2023-03-27T11:59:39.172Z,79.92
2023-03-27T12:03:00.355Z,80.09
2023-03-27T12:06:26.814Z,80.39
2023-03-27T12:10:01.319Z,80.72
2023-03-27T12:13:42.665Z,80.18
2023-03-27T12:17:14.272Z,80.29
2023-03-27T12:20:32.738Z,80.26
2023-03-27T12:24:04.632Z,80.09
2023-03-27T12:27:34.318Z,79.90
2023-03-27T12:30:44.746Z,79.44
2023-03-27T12:34:19.811Z,79.06
2023-03-27T12:37:31.107Z,79.04
2023-03-27T12:40:52.495Z,77.81
2023-03-27T12:44:01.329Z,76.09
2023-03-27T12:47:14.514Z,75.63
2023-03-27T12:50:27.432Z,74.96
2023-03-27T12:53:30.917Z,73.33
2023-03-27T12:56:36.203Z,73.40
2023-03-27T12:59:50.819Z,72.52
2023-03-27T13:02:56.386Z,71.97
2023-03-27T13:06:12.780Z,71.21
2023-03-27T13:09:35.467Z,70.66
2023-03-27T13:12:48.142Z,69.14
2023-03-27T13:16:02.132Z,69.10
2023-03-27T13:19:24.126Z,67.93
2023-03-27T13:23:12.096Z,67.29
2023-03-27T13:26:21.556Z,66.52
2023-03-27T13:29:59.907Z,66.09
2023-03-27T13:33:31.608Z,67.30
2023-03-27T13:36:36.463Z,65.67
2023-03-27T13:40:02.299Z,65.29
2023-03-27T13:43:35.893Z,66.09
2023-03-27T13:46:48.180Z,65.17
2023-03-27T13:50:05.624Z,65.83
2023-03-27T13:53:25.491Z,64.67
2023-03-27T13:57:17.288Z,64.59
2023-03-27T14:00:25.208Z,64.64
2023-03-27T14:03:41.760Z,65.22
2023-03-27T14:07:09.571Z,64.71
2023-03-27T14:10:24.859Z,64.14
2023-03-27T14:14:03.563Z,64.35
2023-03-27T14:17:21.963Z,64.39
2023-03-27T14:20:41.844Z,64.54
2023-03-27T14:23:58.844Z,65.17
2023-03-27T14:27:03.982Z,64.81
2023-03-27T14:30:15.662Z,64.23
2023-03-27T14:33:20.060Z,64.25
2023-03-27T14:36:28.683Z,64.69
2023-03-27T14:39:37.653Z,63.86
2023-03-27T14:42:46.776Z,62.77
2023-03-27T14:45:52.562Z,62.59
2023-03-27T14:48:59.995Z,62.28
2023-03-27T14:52:07.766Z,61.41
2023-03-27T14:55:19.894Z,61.11
2023-03-27T14:58:25.081Z,60.21
2023-03-27T15:01:31.953Z,60.09
2023-03-27T15:04:35.133Z,59.66
2023-03-27T15:07:42.870Z,59.44
2023-03-27T15:10:52.093Z,59.53
2023-03-27T15:13:57.562Z,59.21
2023-03-27T15:17:06.933Z,59.12
2023-03-27T15:20:14.886Z,58.78
2023-03-27T15:23:24.790Z,58.68
2023-03-27T15:26:32.115Z,59.41
2023-03-27T15:29:49.962Z,58.51
2023-03-27T15:32:56.846Z,58.47
2023-03-27T15:36:11.502Z,57.95
2023-03-27T15:39:22.415Z,57.95
2023-03-27T15:42:45.887Z,58.10
2023-03-27T15:45:55.322Z,57.50
2023-03-27T15:49:19.994Z,57.46
2023-03-27T15:52:32.370Z,57.43
2023-03-27T15:55:38.088Z,57.26
2023-03-27T15:58:46.490Z,57.18
2023-03-27T16:01:54.442Z,57.19
2023-03-27T16:04:58.976Z,56.62
2023-03-27T16:08:01.393Z,56.36
2023-03-27T16:11:06.354Z,56.25
2023-03-27T16:14:28.657Z,56.64
2023-03-27T16:17:42.767Z,56.36
2023-03-27T16:20:45.591Z,56.38
2023-03-27T16:23:48.248Z,56.28
2023-03-27T16:26:52.635Z,56.24
2023-03-27T16:33:22.509Z,56.27
2023-03-27T16:36:33.629Z,56.16
2023-03-27T16:39:36.449Z,56.15
2023-03-27T16:42:39.153Z,56.23
2023-03-27T16:45:42.000Z,56.16
2023-03-27T16:48:44.901Z,55.82
2023-03-27T16:51:47.311Z,55.72
2023-03-27T16:54:52.739Z,55.19
2023-03-27T16:57:55.802Z,55.52
2023-03-27T17:00:58.548Z,55.28
2023-03-27T17:04:01.305Z,54.57
2023-03-27T17:07:05.375Z,54.58
2023-03-27T17:10:08.781Z,54.46
2023-03-27T17:13:11.581Z,54.50
2023-03-27T17:16:15.349Z,54.57
2023-03-27T17:19:18.534Z,55.05
2023-03-27T17:22:21.508Z,54.93
2023-03-27T17:25:24.317Z,54.29
2023-03-27T17:28:26.604Z,55.32
2023-03-27T17:31:30.972Z,53.85
2023-03-27T17:34:33.468Z,53.51
2023-03-27T17:37:36.366Z,53.04
2023-03-27T17:40:40.908Z,53.41
2023-03-27T17:43:45.327Z,52.55
2023-03-27T17:46:47.825Z,52.60
2023-03-27T17:49:52.927Z,52.30
2023-03-27T17:52:55.565Z,51.95
2023-03-27T17:55:59.300Z,52.62
2023-03-27T17:59:02.447Z,52.17
2023-03-27T18:02:05.369Z,52.20
2023-03-27T18:05:08.137Z,52.13
2023-03-27T18:08:12.739Z,51.91
2023-03-27T18:11:19.111Z,52.02
2023-03-27T18:14:21.492Z,52.14
2023-03-27T18:17:24.384Z,51.93
2023-03-27T18:20:26.781Z,52.10
2023-03-27T18:23:29.473Z,52.31
2023-03-27T18:26:31.903Z,52.43
2023-03-27T18:29:34.574Z,52.46
2023-03-27T18:32:36.961Z,52.35
2023-03-27T18:35:42.657Z,52.67
2023-03-27T18:38:45.991Z,52.12
2023-03-27T18:41:51.388Z,52.53
2023-03-27T18:44:53.935Z,51.94
2023-03-27T18:47:56.650Z,52.49
2023-03-27T18:51:01.728Z,52.42
2023-03-27T18:54:06.030Z,51.72
2023-03-27T18:57:08.277Z,51.51
2023-03-27T19:00:18.343Z,51.44
2023-03-27T19:03:23.523Z,51.72
2023-03-27T19:06:26.640Z,51.28
2023-03-27T19:09:40.673Z,51.56
2023-03-27T19:12:44.437Z,51.45
2023-03-27T19:15:48.952Z,51.25
2023-03-27T19:18:52.930Z,51.03
2023-03-27T19:21:55.456Z,51.16
2023-03-27T19:24:58.920Z,50.93
2023-03-27T19:28:02.558Z,50.39
2023-03-27T19:31:09.893Z,50.65
2023-03-27T19:34:12.241Z,51.44
2023-03-27T19:37:14.999Z,51.39
2023-03-27T19:40:18.523Z,52.47
2023-03-27T19:43:21.911Z,51.20
2023-03-27T19:46:24.589Z,51.15
2023-03-27T19:49:27.523Z,51.05
2023-03-27T19:52:30.698Z,51.24
2023-03-27T19:55:33.367Z,50.74
2023-03-27T19:58:35.901Z,50.98
2023-03-27T20:01:38.605Z,50.43
2023-03-27T20:04:41.563Z,50.83
2023-03-27T20:07:43.858Z,50.57
2023-03-27T20:10:50.702Z,50.62
2023-03-27T20:13:56.987Z,50.07
2023-03-27T20:16:59.993Z,50.18
2023-03-27T20:20:02.390Z,50.33
2023-03-27T20:23:06.092Z,50.20
2023-03-27T20:26:09.236Z,49.79
2023-03-27T20:29:16.218Z,49.90
2023-03-27T20:32:19.946Z,49.79
2023-03-27T20:35:25.020Z,49.42
2023-03-27T20:38:30.791Z,50.27
2023-03-27T20:41:34.624Z,50.27
2023-03-27T20:44:37.167Z,49.04
2023-03-27T20:47:43.263Z,48.83
2023-03-27T20:50:55.773Z,48.44
2023-03-27T20:53:58.414Z,48.80
2023-03-27T20:57:01.523Z,48.50
2023-03-27T21:00:08.129Z,48.64
2023-03-27T21:03:10.968Z,48.46
2023-03-27T21:06:17.305Z,48.41
2023-03-27T21:09:19.827Z,48.59
2023-03-27T21:12:22.423Z,48.54
2023-03-27T21:15:24.772Z,50.07
2023-03-27T21:18:27.463Z,48.35
2023-03-27T21:21:31.216Z,48.80
2023-03-27T21:24:33.677Z,49.30
2023-03-27T21:27:36.051Z,48.93
2023-03-27T21:30:46.500Z,48.97
2023-03-27T21:33:50.629Z,48.95
2023-03-27T21:36:53.311Z,49.53
2023-03-27T21:39:55.975Z,48.61
2023-03-27T21:42:59.794Z,48.95
2023-03-27T21:46:03.607Z,48.67
2023-03-27T21:49:06.507Z,48.82
2023-03-27T21:52:09.594Z,49.14
2023-03-27T21:55:12.318Z,48.56
2023-03-27T21:58:14.660Z,48.78
2023-03-27T22:01:17.794Z,48.25
2023-03-27T22:04:21.788Z,49.27
2023-03-27T22:07:24.320Z,48.76
2023-03-27T22:10:26.951Z,48.53
2023-03-27T22:13:29.360Z,49.04
2023-03-27T22:16:31.970Z,48.33
2023-03-27T22:19:34.292Z,48.28
2023-03-27T22:22:38.031Z,48.04
2023-03-27T22:25:40.453Z,47.97
2023-03-27T22:28:43.425Z,48.12
2023-03-27T22:31:45.826Z,48.26
2023-03-27T22:34:49.273Z,48.42
2023-03-27T22:37:51.641Z,48.04
2023-03-27T22:40:54.221Z,47.86
2023-03-27T22:43:56.557Z,48.47
2023-03-27T22:47:00.342Z,48.10
2023-03-27T22:50:04.914Z,47.88
2023-03-27T22:53:07.704Z,47.81
2023-03-27T22:56:10.240Z,48.69
2023-03-27T22:59:14.141Z,47.79
2023-03-27T23:02:16.654Z,48.02
2023-03-27T23:05:19.464Z,48.82
2023-03-27T23:08:24.326Z,48.05
2023-03-27T23:11:27.021Z,47.75
2023-03-27T23:14:29.465Z,47.76
2023-03-27T23:17:32.094Z,47.96
2023-03-27T23:20:34.399Z,48.36
2023-03-27T23:23:38.955Z,48.52
2023-03-27T23:26:41.369Z,47.67
2023-03-27T23:29:44.541Z,48.39
2023-03-27T23:32:46.876Z,47.45
2023-03-27T23:35:49.543Z,47.74
2023-03-27T23:38:53.189Z,47.64
2023-03-27T23:41:56.005Z,48.05
2023-03-27T23:44:58.337Z,47.49
2023-03-27T23:48:01.381Z,47.89
2023-03-27T23:51:04.311Z,48.29
2023-03-27T23:54:06.931Z,48.59
2023-03-27T23:57:09.446Z,48.59
